地図

経路データ

SID SEASON NUMBER BASIN SUBBASIN NAME ISO_TIME NATURE LAT LON WMO_WIND WMO_PRES WMO_AGENCY TRACK_TYPE DIST2LAND LANDFALL IFLAG USA_AGENCY USA_ATCF_ID USA_LAT USA_LON USA_RECORD USA_STATUS USA_WIND USA_PRES USA_SSHS USA_R34_NE USA_R34_SE USA_R34_SW USA_R34_NW USA_R50_NE USA_R50_SE USA_R50_SW USA_R50_NW USA_R64_NE USA_R64_SE USA_R64_SW USA_R64_NW USA_POCI USA_ROCI USA_RMW USA_EYE TOKYO_LAT TOKYO_LON TOKYO_GRADE TOKYO_WIND TOKYO_PRES TOKYO_R50_DIR TOKYO_R50_LONG TOKYO_R50_SHORT TOKYO_R30_DIR TOKYO_R30_LONG TOKYO_R30_SHORT TOKYO_LAND CMA_LAT CMA_LON CMA_CAT CMA_WIND CMA_PRES HKO_LAT HKO_LON HKO_CAT HKO_WIND HKO_PRES NEWDELHI_LAT NEWDELHI_LON NEWDELHI_GRADE NEWDELHI_WIND NEWDELHI_PRES NEWDELHI_CI NEWDELHI_DP NEWDELHI_POCI REUNION_LAT REUNION_LON REUNION_TYPE REUNION_WIND REUNION_PRES REUNION_TNUM REUNION_CI REUNION_RMW REUNION_R34_NE REUNION_R34_SE REUNION_R34_SW REUNION_R34_NW REUNION_R50_NE REUNION_R50_SE REUNION_R50_SW REUNION_R50_NW REUNION_R64_NE REUNION_R64_SE REUNION_R64_SW REUNION_R64_NW BOM_LAT BOM_LON BOM_TYPE BOM_WIND BOM_PRES BOM_TNUM BOM_CI BOM_RMW BOM_R34_NE BOM_R34_SE BOM_R34_SW BOM_R34_NW BOM_R50_NE BOM_R50_SE BOM_R50_SW BOM_R50_NW BOM_R64_NE BOM_R64_SE BOM_R64_SW BOM_R64_NW BOM_ROCI BOM_POCI BOM_EYE BOM_POS_METHOD BOM_PRES_METHOD NADI_LAT NADI_LON NADI_CAT NADI_WIND NADI_PRES WELLINGTON_LAT WELLINGTON_LON WELLINGTON_WIND WELLINGTON_PRES DS824_LAT DS824_LON DS824_STAGE DS824_WIND DS824_PRES TD9636_LAT TD9636_LON TD9636_STAGE TD9636_WIND TD9636_PRES TD9635_LAT TD9635_LON TD9635_WIND TD9635_PRES TD9635_ROCI NEUMANN_LAT NEUMANN_LON NEUMANN_CLASS NEUMANN_WIND NEUMANN_PRES MLC_LAT MLC_LON MLC_CLASS MLC_WIND MLC_PRES USA_GUST BOM_GUST BOM_GUST_PER REUNION_GUST REUNION_GUST_PER USA_SEAHGT USA_SEARAD_NE USA_SEARAD_SE USA_SEARAD_SW USA_SEARAD_NW STORM_SPEED STORM_DIR
1963064S12070 1963 26 SI MM JULIE 1963-03-04 18:00:00 TS -12.2000 70.3000 main 1609 1602 O________OO___ jtwc_sh SH371963 -12.2000 70.3000 -1 -12.2000 70.3000 TC -12.2000 70.3000 7 2 206
1963064S12070 1963 26 SI MM JULIE 1963-03-04 21:00:00 TS -12.3009 70.2554 main 1602 1587 P________PP___ SH371963 -12.3100 70.2550 -1 -12.3100 70.2550 TC -12.2828 70.2562 7 2 206
1963064S12070 1963 26 SI MM JULIE 1963-03-05 00:00:00 TS -12.3875 70.2000 main 1587 1578 O________OP___ jtwc_sh SH371963 -12.4000 70.2000 -1 -12.4000 70.2000 TC -12.3624 70.2000 7 2 221
1963064S12070 1963 26 SI MM JULIE 1963-03-05 03:00:00 TS -12.4503 70.1212 main 1572 1572 P________PP___ SH371963 -12.4575 70.1225 -1 -12.4575 70.1225 TC -12.4359 70.1187 7 1 257
1963064S12070 1963 26 SI MM JULIE 1963-03-05 06:00:00 TS -12.4000 70.1429 reunion main 1578 1572 O____O___OO_O_ jtwc_sh SH371963 -12.5000 70.0000 -1 -11.8000 71.0000 2 9.90000 -12.5000 70.0000 TC 65 -12.5000 70.0000 4 -11.8000 71.0000 TC 30 0 261
1963064S12070 1963 26 SI MM JULIE 1963-03-05 09:00:00 TS -12.4564 70.0863 main 1572 1557 P____P___PP_P_ SH371963 -12.5500 69.8075 -1 -12.1724 70.8925 2 -12.5500 69.8075 TC 65 -12.5532 69.8375 4 -12.1724 70.8925 TC 30 2 225
1963064S12070 1963 26 SI MM JULIE 1963-03-05 12:00:00 TS -12.5667 69.9778 reunion main 1557 1532 O____O___OP_O_ jtwc_sh SH371963 -12.6000 69.6000 -1 -12.5000 70.7000 99 9.90000 -12.6000 69.6000 TC 65 -12.6001 69.6500 4 -12.5000 70.7000 TC 30 4 229
1963064S12070 1963 26 SI MM JULIE 1963-03-05 15:00:00 TS -12.6924 69.8125 main 1532 1508 P____P___PP_P_ SH371963 -12.6500 69.4275 -1 -12.7576 70.3725 99 -12.6500 69.4275 TC 65 -12.6470 69.4625 4 -12.7576 70.3725 TC 30 5 237
1963064S12070 1963 26 SI MM JULIE 1963-03-05 18:00:00 TS -12.8200 69.5800 reunion main 1508 1478 O____O___OO_O_ jtwc_sh SH371963 -12.7000 69.3000 -1 -13.0000 70.0000 99 9.90000 -12.7000 69.3000 TC 65 -12.7000 69.3000 4 -13.0000 70.0000 TC 30 5 234
1963064S12070 1963 26 SI MM JULIE 1963-03-05 21:00:00 TS -12.9743 69.4127 main 1478 1462 P____P___PP_P_ SH371963 -12.7425 69.2425 -1 -13.3075 69.6850 99 -12.7425 69.2425 TC 65 -12.7718 69.2084 4 -13.3075 69.6850 TC 30 4 224
1963064S12070 1963 26 SI MM JULIE 1963-03-06 00:00:00 TS -13.1300 69.2685 reunion main 1462 1432 O____O___OP_O_ jtwc_sh SH371963 -12.8000 69.2000 -1 -13.6000 69.4000 99 9.90000 -12.8000 69.2000 TC 65 -12.8499 69.1424 4 -13.6000 69.4000 TC 30 4 224
1963064S12070 1963 26 SI MM JULIE 1963-03-06 03:00:00 TS -13.2806 69.1131 main 1432 1417 P____P___PP_P_ SH371963 -12.9000 69.1150 -1 -13.8375 69.1275 99 -12.9000 69.1150 TC 65 -12.9280 69.0803 4 -13.8375 69.1275 TC 30 4 228
1963064S12070 1963 26 SI MM JULIE 1963-03-06 06:00:00 TS -13.4000 68.9600 reunion main 1417 1392 O____O___OO_O_ jtwc_sh SH371963 -13.0000 69.0000 -1 -14.0000 68.9000 2 9.90000 -13.0000 69.0000 TC 65 -13.0000 69.0000 4 -14.0000 68.9000 TC 30 3 238
1963064S12070 1963 26 SI MM JULIE 1963-03-06 09:00:00 TS -13.4612 68.8151 main 1392 1383 P____P___PP_P_ SH371963 -13.0575 68.8575 -1 -14.0649 68.7424 2 -13.0575 68.8575 TC 65 -13.0613 68.8756 4 -14.0649 68.7424 TC 32 3 250
1963064S12070 1963 26 SI MM JULIE 1963-03-06 12:00:00 TS -13.5030 68.6660 reunion main 1383 1359 O____O___OP_O_ jtwc_sh SH371963 -13.1000 68.7000 -1 -14.1000 68.6000 99 9.90000 -13.1000 68.7000 TC 65 -13.1150 68.7300 4 -14.1000 68.6000 TC 35 3 251
1963064S12070 1963 26 SI MM JULIE 1963-03-06 15:00:00 TS -13.5693 68.4909 main 1359 1341 P____P___PP_P_ SH371963 -13.1575 68.5500 -1 -14.1850 68.3925 99 -13.1575 68.5500 TC 65 -13.1612 68.5694 4 -14.1850 68.3925 TC 37 4 248
1963064S12070 1963 26 SI MM JULIE 1963-03-06 18:00:00 TS -13.6400 68.3200 reunion main 1341 1326 O____O___OO_O_ jtwc_sh SH371963 -13.2000 68.4000 -1 -14.3000 68.2000 99 9.90000 -13.2000 68.4000 TC 65 -13.2000 68.4000 4 -14.3000 68.2000 TC 40 3 245
1963064S12070 1963 26 SI MM JULIE 1963-03-06 21:00:00 TS -13.7045 68.1904 main 1326 1311 P____P___PP_P_ SH371963 -13.2000 68.2575 -1 -14.4575 68.0925 99 -13.2000 68.2575 TC 65 -13.2077 68.2523 4 -14.4575 68.0925 TC 42 3 244
1963064S12070 1963 26 SI MM JULIE 1963-03-07 00:00:00 TS -13.7625 68.0589 reunion main 1311 1293 O____O___OP_O_ jtwc_sh SH371963 -13.2000 68.1000 -1 -14.6000 68.0000 99 9.90000 -13.2000 68.1000 TC 65 -13.2123 68.0946 4 -14.6000 68.0000 TC 45 3 251
1963064S12070 1963 26 SI MM JULIE 1963-03-07 03:00:00 TS -13.8041 67.8949 main 1293 1269 P____P___PP_P_ SH371963 -13.2275 67.9224 -1 -14.6650 67.8575 99 -13.2275 67.9224 TC 65 -13.2358 67.9147 4 -14.6650 67.8575 TC 47 4 254
1963064S12070 1963 26 SI MM JULIE 1963-03-07 06:00:00 TS -13.8600 67.7000 reunion main 1269 1251 O____O___OO_O_ jtwc_sh SH371963 -13.3000 67.7000 -1 -14.7000 67.7000 3 9.90000 -13.3000 67.7000 TC 65 -13.3000 67.7000 4 -14.7000 67.7000 TC 50 4 250
1963064S12070 1963 26 SI MM JULIE 1963-03-07 09:00:00 TS -13.9544 67.4708 main 1245 1212 P____P___PP_P_ SH371963 -13.4275 67.4150 -1 -14.7425 67.5500 3 -13.4275 67.4150 TC 65 -13.4320 67.4240 4 -14.7425 67.5500 TC 52 5 244
1963064S12070 1963 26 SI MM JULIE 1963-03-07 12:00:00 TS -14.0810 67.2231 reunion main 1212 1188 O____O___OP_O_ jtwc_sh SH371963 -13.6000 67.1000 -1 -14.8000 67.4000 99 9.90000 -13.6000 67.1000 TC 65 -13.6052 67.1153 4 -14.8000 67.4000 TC 55 6 239
1963064S12070 1963 26 SI MM JULIE 1963-03-07 15:00:00 TS -14.2402 66.9768 main 1188 1157 P____P___PP_P_ SH371963 -13.8000 66.7925 -1 -14.9000 67.2500 99 -13.8000 66.7925 TC 65 -13.8008 66.7990 4 -14.9000 67.2500 TC 57 6 236
1963064S12070 1963 26 SI MM JULIE 1963-03-07 18:00:00 TS -14.4000 66.7400 reunion main 1148 1124 O____O___OO_O_ jtwc_sh SH371963 -14.0000 66.5000 -1 -15.0000 67.1000 99 9.90000 -14.0000 66.5000 TC 65 -14.0000 66.5000 4 -15.0000 67.1000 TC 60 5 239
1963064S12070 1963 26 SI MM JULIE 1963-03-07 21:00:00 TS -14.5050 66.5187 main 1124 1100 P____P___PP_P_ SH371963 -14.1500 66.2349 -1 -15.0575 66.9575 99 -14.1500 66.2349 TC 65 -14.1100 66.2087 4 -15.0575 66.9575 TC 60 5 244
1963064S12070 1963 26 SI MM JULIE 1963-03-08 00:00:00 TS -14.6060 66.3090 reunion main 1100 1076 O____O___OP_O_ jtwc_sh SH371963 -14.3000 66.0000 -1 -15.1000 66.8000 99 9.90000 -14.3000 66.0000 TC 65 -14.2301 65.9451 4 -15.1000 66.8000 TC 60 5 244
1963064S12070 1963 26 SI MM JULIE 1963-03-08 03:00:00 TS -14.7090 66.0918 main 1076 1046 P____P___PP_P_ SH371963 -14.4475 65.7625 -1 -15.1200 66.5999 99 -14.4475 65.7625 TC 65 -14.4101 65.7339 4 -15.1200 66.5999 TC 62 5 232
1963064S12070 1963 26 SI MM JULIE 1963-03-08 06:00:00 TS -14.9000 65.9200 reunion main 1046 1018 O____O___OO_O_ jtwc_sh SH371963 -14.7000 65.6000 -1 -15.2000 66.4000 4 9.90000 -14.7000 65.6000 TC 65 -14.7000 65.6000 4 -15.2000 66.4000 TC 65 6 205
1963064S12070 1963 26 SI MM JULIE 1963-03-08 09:00:00 TS -15.2578 65.8307 main 1012 988 P____P___PP_P_ SH371963 -15.1325 65.5550 -1 -15.4200 66.2425 4 -15.1325 65.5550 TC 65 -15.1842 65.5585 4 -15.4200 66.2425 TC 67 8 188
1963064S12070 1963 26 SI MM JULIE 1963-03-08 12:00:00 TS -15.7150 65.7989 reunion main 988 960 O____O___OP_O_ jtwc_sh SH371963 -15.7000 65.6000 -1 -15.7000 66.1000 99 9.90000 -15.7000 65.6000 TC 65 -15.7749 65.5946 4 -15.7000 66.1000 TC 70 9 182
1963064S12070 1963 26 SI MM JULIE 1963-03-08 15:00:00 TS -16.1916 65.7816 main 960 934 P____P___PP_P_ SH371963 -16.3650 65.6774 -1 -15.9125 65.9350 99 -16.3650 65.6774 TC 65 -16.4031 65.6834 4 -15.9125 65.9350 TC 72 10 179
1963064S12070 1963 26 SI MM JULIE 1963-03-08 18:00:00 TS -16.6800 65.8000 reunion main 934 915 O____O___OO_O_ jtwc_sh SH371963 -17.0000 65.8000 -1 -16.2000 65.8000 99 9.90000 -17.0000 65.8000 TC 65 -17.0000 65.8000 4 -16.2000 65.8000 TC 75 9 176
1963064S12070 1963 26 SI MM JULIE 1963-03-08 21:00:00 TS -17.1127 65.8468 main 915 907 P____P___PP_P_ SH371963 -17.4300 65.9501 -1 -16.6400 65.7052 99 -17.4300 65.9501 TC 65 -17.4235 65.9235 4 -16.6400 65.7052 TC 77 9 172
1963064S12070 1963 26 SI MM JULIE 1963-03-09 00:00:00 TS -17.5625 65.9329 reunion main 903 898 O____O___OP_O_ jtwc_sh SH371963 -17.8000 66.1000 -1 -17.2000 65.7000 99 9.90000 -17.8000 66.1000 TC 65 -17.8127 66.0646 4 -17.2000 65.7000 TC 80 10 168
1963064S12070 1963 26 SI MM JULIE 1963-03-09 03:00:00 TS -18.0511 66.0477 main 895 893 P____P___PP_P_ SH371963 -18.2050 66.2151 -1 -17.8125 65.8050 99 -18.2050 66.2151 TC 65 -18.2204 66.1984 4 -17.8125 65.8050 TC 80 11 168
1963064S12070 1963 26 SI MM JULIE 1963-03-09 06:00:00 TS -18.6200 66.1800 reunion main 900 891 O____O___OO_O_ jtwc_sh SH371963 -18.7000 66.3000 -1 -18.5000 66.0000 4 9.90000 -18.7000 66.3000 TC 65 -18.7000 66.3000 4 -18.5000 66.0000 TC 80 13 169
1963064S12070 1963 26 SI MM JULIE 1963-03-09 09:00:00 TS -19.3201 66.3155 main 896 893 P____P___PP_P_ SH371963 -19.3625 66.3724 -1 -19.2650 66.2423 4 -19.3625 66.3724 TC 65 -19.3453 66.3483 4 -19.2650 66.2423 TC 77 15 171
1963064S12070 1963 26 SI MM JULIE 1963-03-09 12:00:00 TS -20.0525 66.4320 reunion main 897 897 O____O___OP_O_ jtwc_sh SH371963 -20.1000 66.4000 -1 -20.0000 66.5000 99 9.90000 -20.1000 66.4000 TC 65 -20.0625 66.3601 4 -20.0000 66.5000 TC 75 14 173
1963064S12070 1963 26 SI MM JULIE 1963-03-09 15:00:00 TS -20.7087 66.5065 main 907 907 P____P___PP_P_ SH371963 -20.8225 66.3652 -1 -20.5500 66.7302 99 -20.8225 66.3652 TC 65 -20.7985 66.3419 4 -20.5500 66.7302 TC 72 13 175
1963064S12070 1963 26 SI MM JULIE 1963-03-09 18:00:00 TS -21.3400 66.5400 reunion main 910 910 O____O___OO_O_ jtwc_sh SH371963 -21.5000 66.3000 -1 -21.1000 66.9000 99 9.90000 -21.5000 66.3000 TC 65 -21.5000 66.3000 4 -21.1000 66.9000 TC 70 13 178
1963064S12070 1963 26 SI MM JULIE 1963-03-09 21:00:00 TS -21.9748 66.5430 main 921 921 P____P___PP_P_ SH371963 -22.0725 66.2573 -1 -21.8200 66.9728 99 -22.0725 66.2573 TC 65 -22.0890 66.2546 4 -21.8200 66.9728 TC 67 13 0
1963064S12070 1963 26 SI MM JULIE 1963-03-10 00:00:00 TS -22.6075 66.5175 reunion main 935 935 O____O___OP_O_ jtwc_sh SH371963 -22.6000 66.2000 -1 -22.6000 67.0000 99 9.90000 -22.6000 66.2000 TC 65 -22.6374 66.1873 4 -22.6000 67.0000 TC 65 13 183
1963064S12070 1963 26 SI MM JULIE 1963-03-10 03:00:00 TS -23.2244 66.4833 main 954 954 P____P___PP_P_ SH371963 -23.1425 66.1075 -1 -23.3350 67.0501 99 -23.1425 66.1075 TC 65 -23.1671 66.1013 4 -23.3350 67.0501 TC 62 13 183
1963064S12070 1963 26 SI MM JULIE 1963-03-10 06:00:00 MX -23.8600 66.4400 reunion main 972 972 O____O___OO_O_ jtwc_sh SH371963 -23.7000 66.0000 -1 -24.1000 67.1000 5 9.90000 -23.7000 66.0000 TC 65 -23.7000 66.0000 4 -24.1000 67.1000 EX 60 13 183
1963064S12070 1963 26 SI MM JULIE 1963-03-10 09:00:00 MX -24.5508 66.3950 main 1003 1003 P____P___PP_P_ SH371963 -24.3000 65.9073 -1 -24.9350 67.1354 5 -24.3000 65.9073 TC 50 -24.2840 65.8895 4 -24.9350 67.1354 EX 55 14 183
1963064S12070 1963 26 SI MM JULIE 1963-03-10 12:00:00 MX -25.2545 66.3530 reunion main 1039 1030 O____O___OP_O_ jtwc_sh SH371963 -24.9000 65.8000 -1 -25.8000 67.2000 99 9.90000 -24.9000 65.8000 TC 35 -24.8725 65.7652 4 -25.8000 67.2000 EX 50 14 183
1963064S12070 1963 26 SI MM JULIE 1963-03-10 15:00:00 MX -25.9209 66.3090 main 1065 1065 P____P___PP_P_ SH371963 -25.4650 65.6501 -1 -26.6124 67.3059 99 -25.4650 65.6501 TC 30 -25.4497 65.6332 4 -26.6124 67.3059 EX 47 14 182
1963064S12070 1963 26 SI MM JULIE 1963-03-10 18:00:00 MX -26.6000 66.3000 reunion main 1109 1109 O____O___OO_O_ jtwc_sh SH371963 -26.0000 65.5000 -1 -27.5000 67.5000 99 9.90000 -26.0000 65.5000 TC 25 -26.0000 65.5000 7 -27.5000 67.5000 EX 45 14 179
1963064S12070 1963 26 SI MM JULIE 1963-03-10 21:00:00 MX -27.3333 66.3416 main 1157 1157 P____P___PP_P_ SH371963 -26.5149 65.3997 -1 -28.5621 67.7689 99 -26.5149 65.3997 TC 25 -26.5122 65.3708 7 -28.5621 67.7689 EX 45 15 175
1963064S12070 1963 26 SI MM JULIE 1963-03-11 00:00:00 MX -28.0785 66.4491 reunion main 1222 1222 O____O___OP_O_ jtwc_sh SH371963 -27.0000 65.3000 -1 -29.7000 68.2000 99 9.90000 -27.0000 65.3000 TC 25 -26.9925 65.2454 7 -29.7000 68.2000 EX 45 15 170
1963064S12070 1963 26 SI MM JULIE 1963-03-11 03:00:00 MX -28.7988 66.6240 main 1290 1290 P____P___PP_P_ SH371963 -27.4576 65.1629 -1 -30.8137 68.8358 99 -27.4576 65.1629 TC 25 -27.4516 65.1224 7 -30.8137 68.8358 EX 45 15 166
1963064S12070 1963 26 SI MM JULIE 1963-03-11 06:00:00 MX -29.5000 66.8400 reunion main 1359 O____O___OO_O_ jtwc_sh SH371963 -27.9000 65.0000 -1 -31.9000 69.6000 5 9.90000 -27.9000 65.0000 TC 25 -27.9000 65.0000 7 -31.9000 69.6000 EX 45 15 165

IBTrACS Databaseについて

本データベースは、米国NOAAが公開する1842年以降の世界の熱帯低気圧のベストトラックデータアーカイブInternational Best Track Archive for Climate Stewardship (IBTrACS)を、ウェブで閲覧しやすい形式に変換したものです。

最終更新日:2021-11-26